sensor_id;sensor_type;location;lat;lon;timestamp;pressure;altitude;pressure_sealevel;temperature;humidity
37368;BME280;23240;43.210;27.910;2023-03-17T00:00:34;101257.09;;;4.73;100.00
37368;BME280;23240;43.210;27.910;2023-03-17T00:02:59;101248.91;;;4.78;100.00
37368;BME280;23240;43.210;27.910;2023-03-17T00:05:26;101247.91;;;4.80;100.00
37368;BME280;23240;43.210;27.910;2023-03-17T00:08:02;101245.97;;;4.84;100.00
37368;BME280;23240;43.210;27.910;2023-03-17T00:10:29;101254.41;;;4.92;100.00
37368;BME280;23240;43.210;27.910;2023-03-17T00:12:55;101241.75;;;4.97;100.00
37368;BME280;23240;43.210;27.910;2023-03-17T00:15:20;101247.00;;;4.99;100.00
37368;BME280;23240;43.210;27.910;2023-03-17T00:17:47;101248.47;;;5.04;100.00
37368;BME280;23240;43.210;27.910;2023-03-17T00:20:34;101238.72;;;5.05;100.00
37368;BME280;23240;43.210;27.910;2023-03-17T00:22:58;101220.84;;;5.08;100.00
37368;BME280;23240;43.210;27.910;2023-03-17T00:25:28;101252.75;;;5.07;100.00
37368;BME280;23240;43.210;27.910;2023-03-17T00:27:54;101234.03;;;5.10;100.00
37368;BME280;23240;43.210;27.910;2023-03-17T00:30:21;101243.88;;;5.08;100.00
37368;BME280;23240;43.210;27.910;2023-03-17T00:32:50;101239.44;;;5.08;100.00
37368;BME280;23240;43.210;27.910;2023-03-17T00:35:16;101239.44;;;5.08;100.00
37368;BME280;23240;43.210;27.910;2023-03-17T00:37:43;101240.34;;;5.07;100.00
37368;BME280;23240;43.210;27.910;2023-03-17T00:40:13;101236.84;;;5.07;100.00
37368;BME280;23240;43.210;27.910;2023-03-17T00:42:39;101234.03;;;5.10;100.00
37368;BME280;23240;43.210;27.910;2023-03-17T00:45:04;101234.03;;;5.10;100.00
37368;BME280;23240;43.210;27.910;2023-03-17T00:47:30;101230.53;;;5.09;100.00
37368;BME280;23240;43.210;27.910;2023-03-17T00:49:56;101248.16;;;5.10;100.00
37368;BME280;23240;43.210;27.910;2023-03-17T00:52:21;101233.19;;;5.09;100.00
37368;BME280;23240;43.210;27.910;2023-03-17T00:54:46;101246.59;;;5.06;100.00
37368;BME280;23240;43.210;27.910;2023-03-17T00:57:12;101237.53;;;5.10;100.00
37368;BME280;23240;43.210;27.910;2023-03-17T00:59:38;101228.63;;;5.11;100.00
37368;BME280;23240;43.210;27.910;2023-03-17T01:02:04;101239.44;;;5.08;100.00
37368;BME280;23240;43.210;27.910;2023-03-17T01:04:31;101232.38;;;5.07;100.00
37368;BME280;23240;43.210;27.910;2023-03-17T01:06:57;101233.56;;;5.02;100.00
37368;BME280;23240;43.210;27.910;2023-03-17T01:09:24;101244.25;;;5.00;100.00
37368;BME280;23240;43.210;27.910;2023-03-17T01:11:50;101233.56;;;5.02;100.00
37368;BME280;23240;43.210;27.910;2023-03-17T01:14:16;101251.69;;;4.94;100.00
37368;BME280;23240;43.210;27.910;2023-03-17T01:16:41;101249.94;;;4.93;100.00
37368;BME280;23240;43.210;27.910;2023-03-17T01:19:08;101250.78;;;4.93;100.00
37368;BME280;23240;43.210;27.910;2023-03-17T01:21:34;101261.41;;;4.93;100.00
37368;BME280;23240;43.210;27.910;2023-03-17T01:23:59;101249.94;;;4.93;100.00
37368;BME280;23240;43.210;27.910;2023-03-17T01:26:25;101243.78;;;4.92;100.00
37368;BME280;23240;43.210;27.910;2023-03-17T01:28:51;101261.59;;;4.90;100.00
37368;BME280;23240;43.210;27.910;2023-03-17T01:31:16;101255.41;;;4.89;100.00
37368;BME280;23240;43.210;27.910;2023-03-17T01:33:42;101255.41;;;4.89;100.00
37368;BME280;23240;43.210;27.910;2023-03-17T01:36:08;101251.81;;;4.90;100.00
37368;BME280;23240;43.210;27.910;2023-03-17T01:38:34;101278.75;;;4.83;100.00
37368;BME280;23240;43.210;27.910;2023-03-17T01:40:59;101275.16;;;4.84;100.00
37368;BME280;23240;43.210;27.910;2023-03-17T01:43:26;101261.91;;;4.84;100.00
37368;BME280;23240;43.210;27.910;2023-03-17T01:48:38;101260.03;;;4.86;100.00
37368;BME280;23240;43.210;27.910;2023-03-17T01:51:04;101279.38;;;4.88;100.00
37368;BME280;23240;43.210;27.910;2023-03-17T01:53:31;101267.97;;;4.86;100.00
37368;BME280;23240;43.210;27.910;2023-03-17T01:55:57;101275.63;;;4.92;100.00
37368;BME280;23240;43.210;27.910;2023-03-17T01:58:23;101288.84;;;4.94;100.00
37368;BME280;23240;43.210;27.910;2023-03-17T02:00:49;101277.22;;;4.96;100.00
37368;BME280;23240;43.210;27.910;2023-03-17T02:03:15;101290.56;;;4.95;100.00
37368;BME280;23240;43.210;27.910;2023-03-17T02:05:41;101287.69;;;4.99;100.00
37368;BME280;23240;43.210;27.910;2023-03-17T02:08:12;101298.00;;;5.05;100.00
37368;BME280;23240;43.210;27.910;2023-03-17T02:10:37;101288.31;;;5.04;100.00
37368;BME280;23240;43.210;27.910;2023-03-17T02:13:03;101300.00;;;5.00;100.00
37368;BME280;23240;43.210;27.910;2023-03-17T02:15:36;101313.16;;;5.03;100.00
37368;BME280;23240;43.210;27.910;2023-03-17T02:18:03;101295.56;;;5.01;100.00
37368;BME280;23240;43.210;27.910;2023-03-17T02:22:54;101295.69;;;4.98;100.00
37368;BME280;23240;43.210;27.910;2023-03-17T02:25:22;101291.09;;;5.01;100.00
37368;BME280;23240;43.210;27.910;2023-03-17T02:27:49;101302.81;;;4.97;100.00
37368;BME280;23240;43.210;27.910;2023-03-17T02:30:17;101310.94;;;4.94;100.00
37368;BME280;23240;43.210;27.910;2023-03-17T02:32:43;101311.09;;;4.91;100.00
37368;BME280;23240;43.210;27.910;2023-03-17T02:35:08;101312.09;;;4.88;100.00
37368;BME280;23240;43.210;27.910;2023-03-17T02:37:34;101328.59;;;4.95;100.00
37368;BME280;23240;43.210;27.910;2023-03-17T02:39:59;101329.53;;;4.94;100.00
37368;BME280;23240;43.210;27.910;2023-03-17T02:42:26;101334.84;;;4.94;100.00
37368;BME280;23240;43.210;27.910;2023-03-17T02:44:51;101318.91;;;4.94;100.00
37368;BME280;23240;43.210;27.910;2023-03-17T02:47:17;101334.19;;;4.89;100.00
37368;BME280;23240;43.210;27.910;2023-03-17T02:49:42;101329.75;;;4.89;100.00
37368;BME280;23240;43.210;27.910;2023-03-17T02:52:08;101328.81;;;4.90;100.00
37368;BME280;23240;43.210;27.910;2023-03-17T02:54:34;101333.25;;;4.90;100.00
37368;BME280;23240;43.210;27.910;2023-03-17T02:57:00;101345.59;;;4.91;100.00
37368;BME280;23240;43.210;27.910;2023-03-17T02:59:25;101339.66;;;4.86;100.00
37368;BME280;23240;43.210;27.910;2023-03-17T03:01:51;101337.09;;;4.84;100.00
37368;BME280;23240;43.210;27.910;2023-03-17T03:04:17;101351.03;;;4.88;100.00
37368;BME280;23240;43.210;27.910;2023-03-17T03:06:43;101338.72;;;4.87;100.00
37368;BME280;23240;43.210;27.910;2023-03-17T03:09:09;101367.13;;;4.85;100.00
37368;BME280;23240;43.210;27.910;2023-03-17T03:11:36;101356.66;;;4.82;100.00
37368;BME280;23240;43.210;27.910;2023-03-17T03:14:01;101337.94;;;4.85;100.00
37368;BME280;23240;43.210;27.910;2023-03-17T03:16:27;101337.84;;;4.86;100.00
37368;BME280;23240;43.210;27.910;2023-03-17T03:18:52;101337.84;;;4.86;100.00
37368;BME280;23240;43.210;27.910;2023-03-17T03:21:18;101334.47;;;4.83;100.00
37368;BME280;23240;43.210;27.910;2023-03-17T03:23:44;101341.66;;;4.81;100.00
37368;BME280;23240;43.210;27.910;2023-03-17T03:26:09;101343.69;;;4.76;100.00
37368;BME280;23240;43.210;27.910;2023-03-17T03:28:35;101340.81;;;4.80;100.00
37368;BME280;23240;43.210;27.910;2023-03-17T03:31:01;101350.56;;;4.80;100.00
37368;BME280;23240;43.210;27.910;2023-03-17T03:33:26;101351.34;;;4.82;100.00
37368;BME280;23240;43.210;27.910;2023-03-17T03:35:52;101356.44;;;4.86;100.00
37368;BME280;23240;43.210;27.910;2023-03-17T03:38:17;101351.97;;;4.87;100.00
37368;BME280;23240;43.210;27.910;2023-03-17T03:40:43;101365.13;;;4.90;100.00
37368;BME280;23240;43.210;27.910;2023-03-17T03:43:08;101361.81;;;4.85;100.00
37368;BME280;23240;43.210;27.910;2023-03-17T03:45:34;101382.13;;;4.86;100.00
37368;BME280;23240;43.210;27.910;2023-03-17T03:47:59;101374.16;;;4.86;100.00
37368;BME280;23240;43.210;27.910;2023-03-17T03:50:25;101372.78;;;4.77;100.00
37368;BME280;23240;43.210;27.910;2023-03-17T03:52:50;101390.09;;;4.86;100.00
37368;BME280;23240;43.210;27.910;2023-03-17T03:55:16;101386.50;;;4.87;100.00
37368;BME280;23240;43.210;27.910;2023-03-17T03:57:41;101369.50;;;4.91;100.00
37368;BME280;23240;43.210;27.910;2023-03-17T04:00:07;101382.00;;;4.89;100.00
37368;BME280;23240;43.210;27.910;2023-03-17T04:02:33;101379.97;;;4.94;100.00
37368;BME280;23240;43.210;27.910;2023-03-17T04:04:58;101386.84;;;4.98;100.00
37368;BME280;23240;43.210;27.910;2023-03-17T04:07:24;101386.84;;;4.98;100.00
37368;BME280;23240;43.210;27.910;2023-03-17T04:09:49;101403.78;;;4.96;100.00
37368;BME280;23240;43.210;27.910;2023-03-17T04:12:15;101402.13;;;4.93;100.00
37368;BME280;23240;43.210;27.910;2023-03-17T04:14:41;101406.53;;;4.94;100.00
37368;BME280;23240;43.210;27.910;2023-03-17T04:17:08;101404.78;;;4.93;100.00
37368;BME280;23240;43.210;27.910;2023-03-17T04:19:34;101408.22;;;4.95;100.00
37368;BME280;23240;43.210;27.910;2023-03-17T04:21:59;101412.91;;;4.90;100.00
37368;BME280;23240;43.210;27.910;2023-03-17T04:24:24;101413.69;;;4.92;100.00
37368;BME280;23240;43.210;27.910;2023-03-17T04:26:51;101428.91;;;4.88;100.00
37368;BME280;23240;43.210;27.910;2023-03-17T04:29:17;101415.84;;;4.84;100.00
37368;BME280;23240;43.210;27.910;2023-03-17T04:31:43;101412.56;;;4.79;100.00
37368;BME280;23240;43.210;27.910;2023-03-17T04:34:15;101415.44;;;4.74;100.00
37368;BME280;23240;43.210;27.910;2023-03-17T04:36:41;101422.66;;;4.71;100.00
37368;BME280;23240;43.210;27.910;2023-03-17T04:39:07;101426.25;;;4.70;100.00
37368;BME280;23240;43.210;27.910;2023-03-17T04:41:32;101424.50;;;4.69;100.00
37368;BME280;23240;43.210;27.910;2023-03-17T04:43:57;101415.47;;;4.73;100.00
37368;BME280;23240;43.210;27.910;2023-03-17T04:46:23;101428.69;;;4.74;100.00
37368;BME280;23240;43.210;27.910;2023-03-17T04:48:48;101421.06;;;4.67;100.00
37368;BME280;23240;43.210;27.910;2023-03-17T04:51:13;101418.56;;;4.63;100.00
37368;BME280;23240;43.210;27.910;2023-03-17T04:53:39;101427.31;;;4.66;100.00
37368;BME280;23240;43.210;27.910;2023-03-17T04:56:04;101427.09;;;4.70;100.00
37368;BME280;23240;43.210;27.910;2023-03-17T04:58:30;101429.69;;;4.72;100.00
37368;BME280;23240;43.210;27.910;2023-03-17T05:00:55;101431.34;;;4.74;100.00
37368;BME280;23240;43.210;27.910;2023-03-17T05:03:20;101440.00;;;4.78;100.00
37368;BME280;23240;43.210;27.910;2023-03-17T05:05:46;101439.09;;;4.79;100.00
37368;BME280;23240;43.210;27.910;2023-03-17T05:08:11;101447.72;;;4.84;100.00
37368;BME280;23240;43.210;27.910;2023-03-17T05:10:37;101437.09;;;4.84;100.00
37368;BME280;23240;43.210;27.910;2023-03-17T05:13:02;101433.41;;;4.86;100.00
37368;BME280;23240;43.210;27.910;2023-03-17T05:15:27;101441.50;;;4.83;100.00
37368;BME280;23240;43.210;27.910;2023-03-17T05:17:53;101445.63;;;4.90;100.00
37368;BME280;23240;43.210;27.910;2023-03-17T05:20:19;101484.00;;;5.02;100.00
37368;BME280;23240;43.210;27.910;2023-03-17T05:22:44;101457.88;;;4.93;100.00
37368;BME280;23240;43.210;27.910;2023-03-17T05:25:10;101466.78;;;4.92;100.00
37368;BME280;23240;43.210;27.910;2023-03-17T05:27:35;101474.69;;;4.94;100.00
37368;BME280;23240;43.210;27.910;2023-03-17T05:30:02;101472.88;;;4.94;100.00
37368;BME280;23240;43.210;27.910;2023-03-17T05:32:27;101490.25;;;5.01;100.00
37368;BME280;23240;43.210;27.910;2023-03-17T05:34:52;101507.84;;;5.04;100.00
37368;BME280;23240;43.210;27.910;2023-03-17T05:37:18;101513.59;;;5.13;100.00
37368;BME280;23240;43.210;27.910;2023-03-17T05:39:43;101505.03;;;5.26;100.00
37368;BME280;23240;43.210;27.910;2023-03-17T05:42:08;101504.47;;;5.38;100.00
37368;BME280;23240;43.210;27.910;2023-03-17T05:44:34;101515.81;;;5.41;100.00
37368;BME280;23240;43.210;27.910;2023-03-17T05:46:59;101521.69;;;5.48;100.00
37368;BME280;23240;43.210;27.910;2023-03-17T05:49:28;101519.31;;;5.61;100.00
37368;BME280;23240;43.210;27.910;2023-03-17T05:51:54;101537.28;;;5.73;100.00
37368;BME280;23240;43.210;27.910;2023-03-17T05:54:19;101534.63;;;5.73;100.00
37368;BME280;23240;43.210;27.910;2023-03-17T05:56:45;101542.75;;;5.70;100.00
37368;BME280;23240;43.210;27.910;2023-03-17T05:59:11;101540.50;;;5.80;100.00
37368;BME280;23240;43.210;27.910;2023-03-17T06:01:39;101539.19;;;5.88;100.00
37368;BME280;23240;43.210;27.910;2023-03-17T06:04:04;101545.59;;;5.84;100.00
37368;BME280;23240;43.210;27.910;2023-03-17T06:06:30;101555.91;;;5.92;100.00
37368;BME280;23240;43.210;27.910;2023-03-17T06:08:56;101561.63;;;6.02;100.00
37368;BME280;23240;43.210;27.910;2023-03-17T06:11:21;101570.59;;;5.99;100.00
37368;BME280;23240;43.210;27.910;2023-03-17T06:13:47;101570.09;;;5.91;100.00
37368;BME280;23240;43.210;27.910;2023-03-17T06:16:12;101579.31;;;5.84;100.00
37368;BME280;23240;43.210;27.910;2023-03-17T06:18:38;101576.59;;;5.85;100.00
37368;BME280;23240;43.210;27.910;2023-03-17T06:21:03;101564.81;;;5.72;100.00
37368;BME280;23240;43.210;27.910;2023-03-17T06:23:29;101583.22;;;5.77;100.00
37368;BME280;23240;43.210;27.910;2023-03-17T06:25:54;101580.59;;;5.94;100.00
37368;BME280;23240;43.210;27.910;2023-03-17T06:28:19;101584.34;;;5.90;100.00
37368;BME280;23240;43.210;27.910;2023-03-17T06:30:45;101591.81;;;5.82;100.00
37368;BME280;23240;43.210;27.910;2023-03-17T06:33:10;101608.28;;;5.90;100.00
37368;BME280;23240;43.210;27.910;2023-03-17T06:35:35;101592.13;;;5.76;100.00
37368;BME280;23240;43.210;27.910;2023-03-17T06:38:01;101612.25;;;5.62;100.00
37368;BME280;23240;43.210;27.910;2023-03-17T06:40:27;101608.94;;;5.57;100.00
37368;BME280;23240;43.210;27.910;2023-03-17T06:42:53;101605.91;;;5.65;100.00
37368;BME280;23240;43.210;27.910;2023-03-17T06:45:18;101616.53;;;5.84;100.00
37368;BME280;23240;43.210;27.910;2023-03-17T06:47:43;101620.91;;;5.85;100.00
37368;BME280;23240;43.210;27.910;2023-03-17T06:50:09;101615.19;;;5.94;100.00
37368;BME280;23240;43.210;27.910;2023-03-17T06:52:36;101606.69;;;6.05;100.00
37368;BME280;23240;43.210;27.910;2023-03-17T06:55:01;101622.25;;;6.12;100.00
37368;BME280;23240;43.210;27.910;2023-03-17T06:57:27;101612.88;;;6.23;100.00
37368;BME280;23240;43.210;27.910;2023-03-17T06:59:52;101617.59;;;6.52;100.00
37368;BME280;23240;43.210;27.910;2023-03-17T07:02:17;101635.44;;;6.33;100.00
37368;BME280;23240;43.210;27.910;2023-03-17T07:04:43;101611.81;;;6.27;100.00
37368;BME280;23240;43.210;27.910;2023-03-17T07:07:09;101621.38;;;6.31;100.00
37368;BME280;23240;43.210;27.910;2023-03-17T07:09:34;101614.41;;;6.46;100.00
37368;BME280;23240;43.210;27.910;2023-03-17T07:12:00;101610.09;;;6.60;100.00
37368;BME280;23240;43.210;27.910;2023-03-17T07:14:32;101624.66;;;6.70;100.00
37368;BME280;23240;43.210;27.910;2023-03-17T07:16:58;101615.97;;;6.84;100.00
37368;BME280;23240;43.210;27.910;2023-03-17T07:19:24;101610.16;;;6.93;100.00
37368;BME280;23240;43.210;27.910;2023-03-17T07:21:49;101611.34;;;6.88;100.00
37368;BME280;23240;43.210;27.910;2023-03-17T07:24:14;101606.31;;;6.99;100.00
37368;BME280;23240;43.210;27.910;2023-03-17T07:26:40;101611.84;;;7.12;100.00
37368;BME280;23240;43.210;27.910;2023-03-17T07:29:05;101624.81;;;7.02;100.00
37368;BME280;23240;43.210;27.910;2023-03-17T07:31:32;101602.78;;;6.99;100.00
37368;BME280;23240;43.210;27.910;2023-03-17T07:33:57;101618.06;;;6.95;100.00
37368;BME280;23240;43.210;27.910;2023-03-17T07:36:23;101623.75;;;7.05;100.00
37368;BME280;23240;43.210;27.910;2023-03-17T07:38:49;101611.25;;;7.07;98.45
37368;BME280;23240;43.210;27.910;2023-03-17T07:41:14;101609.88;;;6.82;98.83
37368;BME280;23240;43.210;27.910;2023-03-17T07:43:39;101610.50;;;6.87;97.93
37368;BME280;23240;43.210;27.910;2023-03-17T07:46:05;101592.75;;;7.04;91.89
37368;BME280;23240;43.210;27.910;2023-03-17T07:48:31;101608.34;;;7.11;99.29
37368;BME280;23240;43.210;27.910;2023-03-17T07:50:57;101605.72;;;7.10;99.48
37368;BME280;23240;43.210;27.910;2023-03-17T07:53:23;101613.19;;;7.20;93.62
37368;BME280;23240;43.210;27.910;2023-03-17T07:55:48;101608.97;;;7.32;85.38
37368;BME280;23240;43.210;27.910;2023-03-17T07:58:13;101623.00;;;7.36;87.95
37368;BME280;23240;43.210;27.910;2023-03-17T08:00:39;101612.88;;;7.58;86.01
37368;BME280;23240;43.210;27.910;2023-03-17T08:03:04;101620.47;;;7.66;81.00
37368;BME280;23240;43.210;27.910;2023-03-17T08:05:29;101624.22;;;7.46;79.59
37368;BME280;23240;43.210;27.910;2023-03-17T08:07:55;101637.00;;;7.39;79.70
37368;BME280;23240;43.210;27.910;2023-03-17T08:10:21;101622.75;;;7.07;89.95
37368;BME280;23240;43.210;27.910;2023-03-17T08:12:46;101622.56;;;7.10;86.17
37368;BME280;23240;43.210;27.910;2023-03-17T08:15:16;101644.47;;;7.33;79.94
37368;BME280;23240;43.210;27.910;2023-03-17T08:17:41;101634.63;;;7.17;82.83
37368;BME280;23240;43.210;27.910;2023-03-17T08:20:06;101639.75;;;7.38;85.71
37368;BME280;23240;43.210;27.910;2023-03-17T08:22:32;101630.34;;;7.80;80.44
37368;BME280;23240;43.210;27.910;2023-03-17T08:24:57;101617.97;;;7.79;82.24
37368;BME280;23240;43.210;27.910;2023-03-17T08:27:23;101635.75;;;7.78;79.82
37368;BME280;23240;43.210;27.910;2023-03-17T08:29:48;101635.25;;;8.03;75.25
37368;BME280;23240;43.210;27.910;2023-03-17T08:32:15;101640.22;;;8.25;73.39
37368;BME280;23240;43.210;27.910;2023-03-17T08:34:40;101638.44;;;8.41;72.12
37368;BME280;23240;43.210;27.910;2023-03-17T08:37:08;101624.78;;;8.46;67.02
37368;BME280;23240;43.210;27.910;2023-03-17T08:39:33;101643.84;;;8.40;70.23
37368;BME280;23240;43.210;27.910;2023-03-17T08:41:59;101640.53;;;8.35;69.12
37368;BME280;23240;43.210;27.910;2023-03-17T08:44:24;101608.59;;;8.03;67.71
37368;BME280;23240;43.210;27.910;2023-03-17T08:46:50;101651.06;;;7.59;74.72
37368;BME280;23240;43.210;27.910;2023-03-17T08:49:16;101623.38;;;7.61;77.17
37368;BME280;23240;43.210;27.910;2023-03-17T08:51:41;101629.75;;;7.90;72.56
37368;BME280;23240;43.210;27.910;2023-03-17T08:54:08;101648.84;;;8.14;72.94
37368;BME280;23240;43.210;27.910;2023-03-17T08:56:34;101629.91;;;8.19;69.93
37368;BME280;23240;43.210;27.910;2023-03-17T08:59:00;101632.41;;;8.06;69.60
37368;BME280;23240;43.210;27.910;2023-03-17T09:01:26;101611.66;;;8.27;70.02
37368;BME280;23240;43.210;27.910;2023-03-17T09:03:52;101616.22;;;8.71;68.88
37368;BME280;23240;43.210;27.910;2023-03-17T09:06:18;101609.25;;;8.83;67.68
37368;BME280;23240;43.210;27.910;2023-03-17T09:08:44;101618.78;;;8.72;67.85
37368;BME280;23240;43.210;27.910;2023-03-17T09:11:15;101587.88;;;8.83;68.61
37368;BME280;23240;43.210;27.910;2023-03-17T09:13:41;101603.38;;;8.32;67.06
37368;BME280;23240;43.210;27.910;2023-03-17T09:16:07;101620.44;;;7.97;69.20
37368;BME280;23240;43.210;27.910;2023-03-17T09:18:33;101614.97;;;8.31;67.19
37368;BME280;23240;43.210;27.910;2023-03-17T09:20:58;101615.25;;;8.42;64.69
37368;BME280;23240;43.210;27.910;2023-03-17T09:23:24;101616.66;;;8.17;65.52
37368;BME280;23240;43.210;27.910;2023-03-17T09:25:49;101630.59;;;8.38;66.25
37368;BME280;23240;43.210;27.910;2023-03-17T09:28:16;101621.84;;;8.81;64.89
37368;BME280;23240;43.210;27.910;2023-03-17T09:30:41;101621.69;;;9.12;65.06
37368;BME280;23240;43.210;27.910;2023-03-17T09:33:08;101616.19;;;9.30;63.36
37368;BME280;23240;43.210;27.910;2023-03-17T09:35:34;101620.56;;;9.31;61.18
37368;BME280;23240;43.210;27.910;2023-03-17T09:37:59;101606.03;;;9.06;62.29
37368;BME280;23240;43.210;27.910;2023-03-17T09:45:54;101591.91;;;8.90;61.89
37368;BME280;23240;43.210;27.910;2023-03-17T09:51:08;101594.38;;;8.93;62.74
37368;BME280;23240;43.210;27.910;2023-03-17T09:56:21;101602.78;;;9.01;63.29
37368;BME280;23240;43.210;27.910;2023-03-17T09:58:52;101599.91;;;9.18;64.77
37368;BME280;23240;43.210;27.910;2023-03-17T10:01:18;101607.66;;;9.23;63.44
37368;BME280;23240;43.210;27.910;2023-03-17T10:03:44;101602.69;;;9.31;62.65
37368;BME280;23240;43.210;27.910;2023-03-17T10:08:42;101600.59;;;9.22;64.01
37368;BME280;23240;43.210;27.910;2023-03-17T10:11:13;101603.13;;;9.66;62.09
37368;BME280;23240;43.210;27.910;2023-03-17T10:16:14;101596.00;;;9.94;62.24
37368;BME280;23240;43.210;27.910;2023-03-17T10:18:50;101595.97;;;9.67;60.94
37368;BME280;23240;43.210;27.910;2023-03-17T10:21:18;101594.75;;;9.58;62.65
37368;BME280;23240;43.210;27.910;2023-03-17T10:23:46;101593.38;;;10.07;62.63
37368;BME280;23240;43.210;27.910;2023-03-17T10:26:25;101596.53;;;10.53;59.46
37368;BME280;23240;43.210;27.910;2023-03-17T10:28:52;101588.50;;;10.53;59.47
37368;BME280;23240;43.210;27.910;2023-03-17T10:31:28;101595.03;;;9.95;59.91
37368;BME280;23240;43.210;27.910;2023-03-17T10:33:54;101580.50;;;9.99;62.88
37368;BME280;23240;43.210;27.910;2023-03-17T10:36:37;101603.00;;;9.96;60.89
37368;BME280;23240;43.210;27.910;2023-03-17T10:39:03;101619.22;;;9.93;59.55
37368;BME280;23240;43.210;27.910;2023-03-17T10:41:30;101597.41;;;9.99;59.97
37368;BME280;23240;43.210;27.910;2023-03-17T10:43:56;101593.13;;;9.56;61.22
37368;BME280;23240;43.210;27.910;2023-03-17T10:46:23;101594.25;;;9.66;61.41
37368;BME280;23240;43.210;27.910;2023-03-17T10:48:53;101581.44;;;9.71;60.97
37368;BME280;23240;43.210;27.910;2023-03-17T10:51:29;101588.13;;;9.78;61.72
37368;BME280;23240;43.210;27.910;2023-03-17T10:53:58;101585.72;;;9.88;61.63
37368;BME280;23240;43.210;27.910;2023-03-17T10:56:25;101582.31;;;9.57;62.09
37368;BME280;23240;43.210;27.910;2023-03-17T10:58:51;101587.91;;;9.40;63.72
37368;BME280;23240;43.210;27.910;2023-03-17T11:04:02;101574.50;;;9.54;63.12
37368;BME280;23240;43.210;27.910;2023-03-17T11:06:42;101579.72;;;9.70;63.80
37368;BME280;23240;43.210;27.910;2023-03-17T11:09:09;101573.16;;;9.61;62.60
37368;BME280;23240;43.210;27.910;2023-03-17T11:11:41;101579.28;;;9.63;63.03
37368;BME280;23240;43.210;27.910;2023-03-17T11:16:39;101600.41;;;9.39;63.12
37368;BME280;23240;43.210;27.910;2023-03-17T11:19:12;101589.06;;;9.21;63.20
37368;BME280;23240;43.210;27.910;2023-03-17T11:24:20;101583.53;;;9.10;64.55
37368;BME280;23240;43.210;27.910;2023-03-17T11:26:56;101586.09;;;9.26;63.76
37368;BME280;23240;43.210;27.910;2023-03-17T11:29:46;101571.47;;;9.32;63.63
37368;BME280;23240;43.210;27.910;2023-03-17T11:47:40;101553.78;;;9.58;59.02
37368;BME280;23240;43.210;27.910;2023-03-17T11:55:26;101549.34;;;9.71;59.72
37368;BME280;23240;43.210;27.910;2023-03-17T11:57:59;101552.13;;;9.69;59.71
37368;BME280;23240;43.210;27.910;2023-03-17T12:00:32;101548.25;;;9.88;59.98
37368;BME280;23240;43.210;27.910;2023-03-17T12:03:05;101545.34;;;10.18;58.65
37368;BME280;23240;43.210;27.910;2023-03-17T12:05:32;101551.06;;;10.26;58.09
37368;BME280;23240;43.210;27.910;2023-03-17T12:08:03;101549.06;;;10.15;56.74
37368;BME280;23240;43.210;27.910;2023-03-17T12:10:31;101557.38;;;10.25;56.01
37368;BME280;23240;43.210;27.910;2023-03-17T12:13:07;101550.22;;;10.38;56.68
37368;BME280;23240;43.210;27.910;2023-03-17T12:15:35;101557.34;;;10.52;56.48
37368;BME280;23240;43.210;27.910;2023-03-17T12:18:04;101551.16;;;10.64;56.37
37368;BME280;23240;43.210;27.910;2023-03-17T12:20:43;101547.19;;;10.70;55.32
37368;BME280;23240;43.210;27.910;2023-03-17T12:23:16;101552.31;;;10.98;54.35
37368;BME280;23240;43.210;27.910;2023-03-17T12:25:48;101550.59;;;11.10;55.27
37368;BME280;23240;43.210;27.910;2023-03-17T12:28:19;101550.66;;;11.34;54.39
37368;BME280;23240;43.210;27.910;2023-03-17T12:30:54;101542.50;;;11.36;53.66
37368;BME280;23240;43.210;27.910;2023-03-17T12:35:47;101536.84;;;11.15;53.17
37368;BME280;23240;43.210;27.910;2023-03-17T12:38:24;101534.78;;;11.31;53.00
37368;BME280;23240;43.210;27.910;2023-03-17T12:46:09;101526.13;;;11.27;51.26
37368;BME280;23240;43.210;27.910;2023-03-17T12:48:44;101519.38;;;11.22;50.89
37368;BME280;23240;43.210;27.910;2023-03-17T12:51:18;101518.19;;;11.13;50.79
37368;BME280;23240;43.210;27.910;2023-03-17T12:53:48;101532.91;;;10.95;51.46
37368;BME280;23240;43.210;27.910;2023-03-17T12:56:20;101530.44;;;10.92;50.76
37368;BME280;23240;43.210;27.910;2023-03-17T12:58:49;101528.50;;;11.06;51.04
37368;BME280;23240;43.210;27.910;2023-03-17T13:01:28;101535.78;;;10.92;50.44
37368;BME280;23240;43.210;27.910;2023-03-17T13:06:32;101522.31;;;10.55;52.81
37368;BME280;23240;43.210;27.910;2023-03-17T13:11:45;101523.03;;;10.57;51.70
37368;BME280;23240;43.210;27.910;2023-03-17T13:14:15;101537.19;;;10.46;51.87
37368;BME280;23240;43.210;27.910;2023-03-17T13:16:48;101537.63;;;10.13;52.50
37368;BME280;23240;43.210;27.910;2023-03-17T13:21:42;101534.81;;;10.42;52.26
37368;BME280;23240;43.210;27.910;2023-03-17T13:26:50;101513.84;;;10.61;51.66
37368;BME280;23240;43.210;27.910;2023-03-17T13:29:49;101508.13;;;10.53;52.51
37368;BME280;23240;43.210;27.910;2023-03-17T13:34:52;101514.38;;;10.66;51.35
37368;BME280;23240;43.210;27.910;2023-03-17T13:37:24;101523.25;;;10.67;51.21
37368;BME280;23240;43.210;27.910;2023-03-17T13:40:02;101504.09;;;10.60;50.86
37368;BME280;23240;43.210;27.910;2023-03-17T13:49:47;101528.38;;;10.32;50.17
37368;BME280;23240;43.210;27.910;2023-03-17T13:52:15;101508.22;;;10.39;50.84
37368;BME280;23240;43.210;27.910;2023-03-17T13:54:48;101521.53;;;10.53;49.88
37368;BME280;23240;43.210;27.910;2023-03-17T13:57:21;101523.59;;;10.62;49.83
37368;BME280;23240;43.210;27.910;2023-03-17T14:02:32;101534.84;;;10.93;48.90